Time;durP1;ratioP1;P1;durP2;ratioP2;P2;SDS_P1;SDS_P2;PMS_P1;PMS_P2;Temp;Humidity;BMP_temperature;BMP_pressure;BME280_temperature;BME280_humidity;BME280_pressure;Samples;Min_cycle;Max_cycle;Signal;HPM_P1;HPM_P2
2022/01/30 00:00:08;;;;;;;5.67;5.17;;;;;;;22.46;39.66;95469.06;5544883;28;20263;-59
2022/01/30 00:02:51;;;;;;;5.33;4.93;;;;;;;22.38;40.06;95464.41;5546999;28;20196;-65
2022/01/30 00:05:34;;;;;;;5.77;5.27;;;;;;;22.46;40.10;95471.72;5546385;28;20468;-64
2022/01/30 00:08:15;;;;;;;5.20;4.80;;;;;;;22.45;40.25;95462.94;5557256;28;20454;-61
2022/01/30 00:11:02;;;;;;;6.20;5.70;;;;;;;22.45;39.74;95470.16;5547017;28;20418;-62
2022/01/30 00:13:42;;;;;;;5.43;4.93;;;;;;;22.44;40.28;95472.03;5547307;28;20189;-59
2022/01/30 00:16:25;;;;;;;6.20;5.60;;;;;;;22.45;39.96;95468.28;5561854;28;20492;-59
2022/01/30 00:19:20;;;;;;;6.47;5.87;;;;;;;22.46;40.24;95469.84;5541970;28;20216;-61
2022/01/30 00:22:15;;;;;;;5.43;4.93;;;;;;;22.48;40.49;95459.69;5546956;28;20423;-59
2022/01/30 00:24:57;;;;;;;7.03;5.33;;;;;;;22.48;40.07;95459.69;5561885;28;20459;-61
2022/01/30 00:28:00;;;;;;;5.87;5.00;;;;;;;22.47;40.25;95444.81;5547474;28;20456;-59
2022/01/30 00:30:41;;;;;;;6.30;5.70;;;;;;;22.41;41.22;95426.56;5541577;28;20446;-65
2022/01/30 00:33:21;;;;;;;5.73;5.20;;;;;;;22.49;40.70;95437.31;5547452;28;20450;-59
2022/01/30 00:36:02;;;;;;;9.17;6.53;;;;;;;22.49;40.89;95436.53;5546876;28;20189;-60
2022/01/30 00:38:42;;;;;;;7.40;6.07;;;;;;;22.49;41.03;95423.22;5546306;28;20181;-60
2022/01/30 00:41:23;;;;;;;7.03;5.63;;;;;;;22.48;41.57;95422.44;5546408;28;20599;-59
2022/01/30 00:44:04;;;;;;;6.37;5.70;;;;;;;22.54;41.61;95420.50;5548884;28;20177;-62
2022/01/30 00:46:45;;;;;;;6.23;5.70;;;;;;;22.48;41.61;95409.09;5550946;28;20170;-59
2022/01/30 00:49:26;;;;;;;6.47;5.80;;;;;;;22.55;41.56;95422.06;5550723;28;20327;-61
2022/01/30 00:52:10;;;;;;;6.70;5.73;;;;;;;22.57;42.20;95414.56;5560752;28;20839;-62
2022/01/30 00:54:51;;;;;;;8.37;5.77;;;;;;;22.48;42.33;95401.13;5550253;28;20688;-59
2022/01/30 00:57:31;;;;;;;5.80;5.30;;;;;;;22.62;42.22;95425.13;5566119;28;20426;-59
2022/01/30 01:00:13;;;;;;;10.57;6.50;;;;;;;22.64;42.78;95412.31;5549874;28;20178;-60
2022/01/30 01:02:53;;;;;;;8.60;6.93;;;;;;;22.63;42.50;95407.28;5544347;28;20269;-60
2022/01/30 01:05:35;;;;;;;9.43;6.40;;;;;;;22.68;42.93;95401.88;5550486;28;20436;-61
2022/01/30 01:08:29;;;;;;;10.43;6.00;;;;;;;22.64;42.70;95384.88;5550461;28;20333;-61
2022/01/30 01:12:25;;;;;;;6.20;5.57;;;;;;;22.72;43.05;95394.88;5550249;28;20415;-61
2022/01/30 01:23:31;;;;;;;6.60;5.40;;;;;;;22.62;42.84;95369.19;5550417;28;20395;-60
2022/01/30 01:26:13;;;;;;;7.33;4.77;;;;;;;22.66;43.18;95372.84;5548128;28;20431;-61
2022/01/30 01:28:53;;;;;;;6.00;4.97;;;;;;;22.62;43.07;95371.06;5548953;28;20419;-60
2022/01/30 01:31:34;;;;;;;7.73;4.30;;;;;;;22.65;42.74;95365.94;5550234;28;20419;-59
2022/01/30 01:34:31;;;;;;;11.40;5.17;;;;;;;22.57;42.46;95352.53;5548209;28;20193;-60
2022/01/30 01:37:12;;;;;;;5.70;4.63;;;;;;;22.55;42.58;95355.50;5563260;28;20266;-61
2022/01/30 01:39:54;;;;;;;5.80;5.20;;;;;;;22.54;42.32;95347.81;5550099;28;20541;-62
2022/01/30 01:42:36;;;;;;;4.90;4.50;;;;;;;22.58;42.41;95348.78;5549483;28;20174;-63
2022/01/30 01:45:21;;;;;;;5.40;5.00;;;;;;;22.56;42.42;95342.97;5547096;28;20533;-63
2022/01/30 01:48:08;;;;;;;8.53;5.17;;;;;;;22.42;42.72;95325.09;5543003;28;20451;-60
2022/01/30 01:50:53;;;;;;;5.93;5.27;;;;;;;22.57;42.86;95336.56;5564121;28;20439;-59
2022/01/30 01:53:34;;;;;;;5.40;4.90;;;;;;;22.48;41.92;95326.56;5547492;28;20533;-60
2022/01/30 01:56:16;;;;;;;5.13;4.73;;;;;;;22.56;42.34;95327.78;5548248;28;20537;-60
2022/01/30 01:58:56;;;;;;;6.30;5.70;;;;;;;22.55;42.54;95333.41;5559186;28;20458;-60
2022/01/30 02:01:37;;;;;;;5.80;5.30;;;;;;;22.57;42.57;95331.22;5548899;28;20445;-60
2022/01/30 02:04:17;;;;;;;6.30;5.70;;;;;;;22.48;42.71;95312.47;5548998;28;20319;-62
2022/01/30 02:07:36;;;;;;;6.43;5.00;;;;;;;22.56;42.28;95316.34;5548696;28;20678;-60
2022/01/30 02:10:05;;;;;;;5.20;4.80;;;;;;;22.56;42.76;95309.13;5543710;28;20213;-64
2022/01/30 02:12:50;;;;;;;6.10;5.40;;;;;;;22.57;43.46;95309.94;5548247;28;20454;-60
2022/01/30 02:23:54;;;;;;;6.77;5.30;;;;;;;22.55;42.89;95307.56;5549242;28;20461;-60
2022/01/30 02:27:26;;;;;;;5.40;5.00;;;;;;;22.58;42.88;95304.31;5547998;28;20481;-60
2022/01/30 02:30:15;;;;;;;6.10;5.60;;;;;;;22.51;43.57;95280.75;5542404;28;20524;-65
2022/01/30 02:32:57;;;;;;;5.93;5.37;;;;;;;22.63;42.94;95306.06;5545478;28;20520;-61
2022/01/30 02:35:37;;;;;;;5.67;4.70;;;;;;;22.64;43.30;95299.66;5548383;28;20502;-61
2022/01/30 02:38:25;;;;;;;6.53;5.93;;;;;;;22.62;43.29;95285.84;5549061;28;20448;-62
2022/01/30 02:41:06;;;;;;;6.10;5.50;;;;;;;22.63;43.28;95274.13;5530310;28;20197;-60
2022/01/30 02:43:57;;;;;;;6.50;5.90;;;;;;;22.62;42.77;95276.00;5546639;28;20934;-59
2022/01/30 02:46:43;;;;;;;5.83;5.23;;;;;;;22.54;43.13;95259.94;5548701;28;20850;-60
2022/01/30 02:52:06;;;;;;;5.90;5.40;;;;;;;22.61;42.68;95257.66;5542702;28;20478;-61
2022/01/30 02:54:47;;;;;;;6.47;5.90;;;;;;;22.61;43.17;95254.97;5548078;28;20212;-59
2022/01/30 02:57:27;;;;;;;5.93;5.40;;;;;;;22.62;43.61;95264.56;5548265;28;20817;-60
2022/01/30 03:00:10;;;;;;;7.20;6.07;;;;;;;22.67;42.53;95251.91;5549912;28;20169;-60
2022/01/30 03:02:50;;;;;;;9.00;6.37;;;;;;;22.61;43.52;95247.00;5543448;28;20181;-62
2022/01/30 03:05:31;;;;;;;8.07;5.80;;;;;;;22.58;42.98;95234.28;5563909;28;20920;-61
2022/01/30 03:08:11;;;;;;;6.10;5.50;;;;;;;22.69;43.11;95241.78;5563576;28;20182;-65
2022/01/30 03:10:52;;;;;;;6.07;5.07;;;;;;;22.69;43.37;95239.09;5547860;28;20212;-64
2022/01/30 03:13:32;;;;;;;5.97;5.43;;;;;;;22.72;43.10;95245.72;5549219;28;20490;-64
2022/01/30 03:16:13;;;;;;;5.27;4.43;;;;;;;22.66;43.08;95250.34;5546019;28;20216;-61
2022/01/30 03:18:53;;;;;;;5.60;5.10;;;;;;;22.65;43.13;95238.09;5549182;28;20288;-61
2022/01/30 03:21:34;;;;;;;5.77;4.83;;;;;;;22.66;43.34;95246.88;5551312;28;20181;-58
2022/01/30 03:24:15;;;;;;;4.73;4.30;;;;;;;22.57;43.10;95224.72;5547904;28;20178;-60
2022/01/30 03:26:55;;;;;;;5.50;4.00;;;;;;;22.58;43.05;95231.63;5542914;28;20213;-59
2022/01/30 03:29:37;;;;;;;4.70;4.27;;;;;;;22.70;42.96;95245.22;5548145;28;20272;-59
2022/01/30 03:32:18;;;;;;;4.50;4.10;;;;;;;22.65;42.98;95245.31;5547006;28;20181;-62
2022/01/30 03:34:59;;;;;;;6.90;4.50;;;;;;;22.67;43.23;95243.91;5546104;28;20434;-61
2022/01/30 03:37:39;;;;;;;7.90;4.50;;;;;;;22.62;42.37;95238.72;5541605;28;20534;-61
2022/01/30 03:40:20;;;;;;;6.73;4.20;;;;;;;22.56;42.37;95236.44;5545846;28;20193;-64
2022/01/30 03:43:00;;;;;;;5.10;4.60;;;;;;;22.48;42.46;95227.28;5546618;28;20551;-62
2022/01/30 03:45:41;;;;;;;5.30;4.73;;;;;;;22.59;42.11;95251.84;5547090;28;20185;-64
2022/01/30 03:48:22;;;;;;;4.97;4.43;;;;;;;22.55;41.84;95256.97;5541641;28;20207;-64
2022/01/30 03:51:02;;;;;;;5.57;5.00;;;;;;;22.56;42.97;95249.78;5546721;28;20419;-60
2022/01/30 03:53:43;;;;;;;10.90;5.80;;;;;;;22.49;41.47;95242.94;5545124;28;20240;-64
2022/01/30 03:56:24;;;;;;;6.00;4.90;;;;;;;22.44;41.54;95231.63;5561501;28;20749;-59
2022/01/30 03:59:04;;;;;;;5.43;4.93;;;;;;;22.55;41.91;95254.31;5542265;28;20240;-61
2022/01/30 04:01:45;;;;;;;4.60;4.20;;;;;;;22.58;41.69;95247.59;5546399;28;20604;-64
2022/01/30 04:04:26;;;;;;;5.50;5.00;;;;;;;22.58;42.05;95250.25;5546542;28;20484;-59
2022/01/30 04:07:07;;;;;;;4.90;4.40;;;;;;;22.41;42.16;95218.91;5546676;28;20188;-63
2022/01/30 04:09:48;;;;;;;6.00;5.03;;;;;;;22.47;42.36;95229.16;5540692;28;20450;-60
2022/01/30 04:12:29;;;;;;;4.67;4.27;;;;;;;22.58;42.55;95237.72;5544928;28;20454;-60
2022/01/30 04:15:10;;;;;;;7.73;4.80;;;;;;;22.52;42.13;95225.63;5549285;28;20422;-60
2022/01/30 04:17:51;;;;;;;4.90;4.47;;;;;;;22.48;42.54;95216.63;5550100;28;20714;-59
2022/01/30 04:20:32;;;;;;;4.50;4.10;;;;;;;22.54;42.65;95233.31;5545728;28;20454;-59
2022/01/30 04:23:12;;;;;;;6.87;4.33;;;;;;;22.57;42.79;95222.84;5551213;28;20193;-61
2022/01/30 04:25:53;;;;;;;5.30;4.80;;;;;;;22.56;42.51;95207.16;5550092;28;20182;-60
2022/01/30 04:28:34;;;;;;;6.13;4.47;;;;;;;22.55;42.33;95190.41;5547964;28;20181;-61
2022/01/30 04:31:14;;;;;;;5.13;4.13;;;;;;;22.50;42.98;95174.50;5545560;28;20213;-61
2022/01/30 04:33:55;;;;;;;4.70;4.30;;;;;;;22.59;42.00;95180.72;5550162;28;20202;-60
2022/01/30 04:36:42;;;;;;;4.67;4.00;;;;;;;22.60;42.60;95176.97;5550354;28;20264;-59
2022/01/30 05:07:47;;;;;;;7.87;5.10;;;;;;;22.62;41.39;95179.34;5550521;28;20738;-60
2022/01/30 05:10:28;;;;;;;8.77;5.73;;;;;;;22.56;41.74;95172.53;5548124;28;20426;-59
2022/01/30 05:13:13;;;;;;;8.27;5.40;;;;;;;22.50;41.95;95156.66;5565040;28;20828;-60
2022/01/30 05:15:54;;;;;;;11.97;5.20;;;;;;;22.57;41.68;95144.84;5530889;28;20689;-62
2022/01/30 05:18:35;;;;;;;8.83;4.97;;;;;;;22.54;41.66;95116.16;5549528;28;20519;-61
2022/01/30 05:21:16;;;;;;;7.83;4.90;;;;;;;22.51;41.41;95114.88;5550062;28;20185;-59
2022/01/30 05:23:57;;;;;;;7.30;5.17;;;;;;;22.54;41.56;95114.28;5549483;28;20596;-61
2022/01/30 05:26:41;;;;;;;7.50;5.03;;;;;;;22.47;41.22;95101.34;5544541;28;20316;-61
2022/01/30 05:29:21;;;;;;;6.10;5.30;;;;;;;22.52;41.87;95101.25;5565289;28;20178;-60
2022/01/30 05:32:02;;;;;;;7.53;4.77;;;;;;;22.49;41.63;95080.53;5564464;28;20422;-63
2022/01/30 05:34:43;;;;;;;5.60;5.00;;;;;;;22.50;42.02;95089.31;5549438;28;20205;-60
2022/01/30 05:37:24;;;;;;;5.90;5.30;;;;;;;22.41;41.33;95069.81;5544943;28;20971;-60
2022/01/30 05:40:06;;;;;;;8.20;5.20;;;;;;;22.49;41.04;95090.41;5549047;28;20654;-61
2022/01/30 05:42:47;;;;;;;7.97;5.30;;;;;;;22.48;41.37;95102.91;5548129;28;20180;-61
2022/01/30 05:45:35;;;;;;;5.43;4.80;;;;;;;22.41;41.39;95099.91;5549571;28;20423;-60
2022/01/30 05:48:17;;;;;;;8.00;5.27;;;;;;;22.47;41.64;95130.63;5544449;28;20616;-61
2022/01/30 05:50:58;;;;;;;7.57;5.20;;;;;;;22.35;41.72;95137.59;5548865;28;20966;-63
2022/01/30 05:53:38;;;;;;;7.77;5.50;;;;;;;22.42;41.25;95159.25;5548632;28;20493;-63
2022/01/30 05:56:19;;;;;;;6.87;5.37;;;;;;;22.35;41.62;95133.03;5549115;28;20220;-65
2022/01/30 05:59:00;;;;;;;5.77;5.03;;;;;;;22.42;41.44;95137.94;5544773;28;20197;-61
2022/01/30 06:01:41;;;;;;;9.00;5.70;;;;;;;22.46;41.40;95144.25;5548457;28;20185;-61
2022/01/30 06:04:21;;;;;;;5.50;5.00;;;;;;;22.46;41.59;95128.28;5548602;28;20438;-61
2022/01/30 06:07:02;;;;;;;7.70;4.90;;;;;;;22.48;41.77;95132.22;5549181;28;20190;-63
2022/01/30 06:09:43;;;;;;;6.00;5.50;;;;;;;22.47;41.13;95122.66;5546428;28;20215;-63
2022/01/30 06:12:23;;;;;;;17.70;9.50;;;;;;;19.81;31.27;95111.25;5544849;28;20213;-64
2022/01/30 06:15:04;;;;;;;11.57;10.40;;;;;;;18.98;32.25;95102.78;5563657;28;20196;-61
2022/01/30 06:17:45;;;;;;;12.93;11.60;;;;;;;18.40;31.70;95098.13;5548390;28;20200;-66
2022/01/30 06:20:25;;;;;;;13.67;12.47;;;;;;;17.86;31.96;95092.88;5547657;28;20449;-64
2022/01/30 06:23:06;;;;;;;17.10;15.40;;;;;;;17.39;31.46;95083.47;5543597;28;20513;-65
2022/01/30 06:25:46;;;;;;;18.03;16.50;;;;;;;17.44;32.53;95064.97;5548359;28;20181;-62
2022/01/30 06:28:27;;;;;;;20.80;19.00;;;;;;;17.48;32.49;95055.47;5548298;28;20611;-61
2022/01/30 06:31:07;;;;;;;26.60;24.13;;;;;;;17.33;33.29;95081.91;5560601;28;20622;-62
2022/01/30 06:33:48;;;;;;;28.30;25.40;;;;;;;16.95;33.61;95072.69;5543114;28;21277;-64
2022/01/30 06:36:28;;;;;;;29.37;26.30;;;;;;;16.74;31.33;95078.00;5546191;28;20564;-61
2022/01/30 06:39:10;;;;;;;31.73;28.67;;;;;;;16.31;34.95;95047.63;5547981;28;20257;-61
2022/01/30 06:41:52;;;;;;;25.13;21.70;;;;;;;16.24;29.56;95068.16;5548465;28;20234;-67
2022/01/30 06:44:32;;;;;;;34.13;23.00;;;;;;;15.63;30.11;95066.16;5543438;28;20808;-63
2022/01/30 06:47:13;;;;;;;28.63;21.33;;;;;;;15.33;30.56;95053.59;5546181;28;20430;-66
2022/01/30 06:49:53;;;;;;;20.20;17.63;;;;;;;16.71;32.01;95077.72;5563312;28;20178;-68
2022/01/30 06:52:34;;;;;;;19.17;17.10;;;;;;;17.81;32.26;95095.53;5547126;28;20217;-66
2022/01/30 06:55:14;;;;;;;17.93;16.13;;;;;;;18.47;30.97;95106.53;5556736;28;20287;-67
2022/01/30 06:57:55;;;;;;;18.90;15.80;;;;;;;18.88;32.59;95074.53;5567294;28;20192;-66
2022/01/30 07:00:36;;;;;;;17.97;15.70;;;;;;;19.29;30.57;95076.81;5559243;28;20724;-67
2022/01/30 07:03:16;;;;;;;19.10;16.93;;;;;;;19.50;29.68;95060.44;5547699;28;20697;-67
2022/01/30 07:05:57;;;;;;;19.07;17.03;;;;;;;19.74;30.17;95057.81;5543086;28;20294;-67
2022/01/30 07:08:37;;;;;;;18.47;16.57;;;;;;;19.91;30.11;95073.25;5546535;28;20242;-67
2022/01/30 07:11:18;;;;;;;16.53;14.93;;;;;;;19.95;30.79;95055.69;5544903;28;20212;-66
2022/01/30 07:13:58;;;;;;;16.23;14.70;;;;;;;20.06;30.84;95053.69;5548769;28;20190;-68
2022/01/30 07:16:39;;;;;;;19.33;15.50;;;;;;;20.22;31.01;95064.91;5557164;28;20213;-68
2022/01/30 07:19:19;;;;;;;16.77;15.10;;;;;;;20.25;31.81;95066.97;5546672;28;20212;-68
2022/01/30 07:22:00;;;;;;;17.90;14.47;;;;;;;20.33;32.00;95055.72;5562078;28;20189;-68
2022/01/30 07:24:40;;;;;;;15.30;13.80;;;;;;;20.45;32.34;95056.09;5547130;28;20181;-66
2022/01/30 07:27:21;;;;;;;18.37;13.77;;;;;;;20.40;32.86;95051.63;5541918;28;20205;-68
2022/01/30 07:30:02;;;;;;;16.50;14.30;;;;;;;20.61;33.13;95076.03;5546572;28;20192;-67
2022/01/30 07:32:43;;;;;;;18.27;13.20;;;;;;;20.59;33.11;95072.88;5546371;28;20363;-67
2022/01/30 07:35:24;;;;;;;20.87;14.23;;;;;;;20.70;33.07;95089.44;5546120;28;20422;-66
2022/01/30 07:38:05;;;;;;;14.13;12.63;;;;;;;20.61;33.11;95057.44;5542141;28;20631;-68
2022/01/30 07:40:45;;;;;;;15.43;13.80;;;;;;;20.79;33.50;95078.94;5547120;28;20415;-67
2022/01/30 07:43:26;;;;;;;14.20;12.63;;;;;;;20.49;33.84;95029.75;5547720;28;20169;-67
2022/01/30 07:46:06;;;;;;;12.50;11.30;;;;;;;20.77;33.70;95081.88;5546868;28;20617;-68
2022/01/30 07:48:47;;;;;;;13.60;12.17;;;;;;;20.70;33.78;95054.94;5544010;28;20178;-70
2022/01/30 07:51:27;;;;;;;13.23;12.03;;;;;;;20.72;33.94;95066.84;5546852;28;20246;-67
2022/01/30 07:54:08;;;;;;;13.50;12.10;;;;;;;20.87;33.91;95095.00;5546886;28;20317;-69
2022/01/30 07:56:49;;;;;;;12.90;11.67;;;;;;;20.92;34.09;95088.81;5547532;28;20589;-68
2022/01/30 07:59:29;;;;;;;11.90;10.73;;;;;;;20.98;34.09;95074.38;5545105;28;20181;-68
2022/01/30 08:02:10;;;;;;;11.50;10.50;;;;;;;21.03;34.05;95066.34;5541134;28;20213;-69
2022/01/30 08:04:52;;;;;;;11.90;10.63;;;;;;;21.03;34.35;95056.50;5562118;28;20239;-69
2022/01/30 08:07:33;;;;;;;12.20;10.70;;;;;;;21.09;33.91;95061.72;5546895;28;20177;-69
2022/01/30 08:10:13;;;;;;;10.97;9.87;;;;;;;21.19;34.16;95062.34;5547296;28;20438;-68
2022/01/30 08:12:54;;;;;;;11.30;10.20;;;;;;;21.18;33.96;95060.78;5557509;28;20224;-68
2022/01/30 08:15:34;;;;;;;14.73;11.40;;;;;;;-144.53;100.00;64590.91;5558968;28;20259;-61
2022/01/30 08:18:15;;;;;;;12.67;10.27;;;;;;;-144.53;100.00;64590.91;5576229;28;20617;-62
2022/01/30 08:20:56;;;;;;;12.60;10.30;;;;;;;-144.53;100.00;64590.91;5546596;28;20639;-61
2022/01/30 08:23:37;;;;;;;11.80;10.63;;;;;;;-144.53;100.00;64590.91;5539645;28;20663;-61
2022/01/30 08:26:17;;;;;;;12.90;10.87;;;;;;;-144.53;100.00;64590.91;5549123;28;20467;-60
2022/01/30 08:28:58;;;;;;;11.30;10.20;;;;;;;-144.53;100.00;64590.91;5547050;28;20647;-60
2022/01/30 08:31:38;;;;;;;10.70;9.70;;;;;;;-144.53;100.00;64590.91;5546195;28;20563;-61
2022/01/30 08:34:19;;;;;;;12.13;10.27;;;;;;;-144.53;100.00;64590.91;5541944;28;20221;-61
2022/01/30 08:36:59;;;;;;;11.50;10.40;;;;;;;-144.53;100.00;64590.91;5547135;28;20181;-61
2022/01/30 08:39:40;;;;;;;11.30;10.20;;;;;;;-144.53;100.00;64590.91;5537835;28;20655;-62
2022/01/30 08:42:20;;;;;;;11.63;10.40;;;;;;;-144.53;100.00;64590.91;5542225;28;20607;-61
2022/01/30 08:45:02;;;;;;;10.13;9.23;;;;;;;-144.53;100.00;64590.91;5536012;28;20770;-64
2022/01/30 08:47:45;;;;;;;11.67;10.40;;;;;;;-144.53;100.00;64590.91;5537467;28;20205;-63
2022/01/30 08:50:26;;;;;;;10.60;9.67;;;;;;;-144.53;100.00;64590.91;5541712;28;20824;-62
2022/01/30 08:53:06;;;;;;;9.60;8.80;;;;;;;-144.53;100.00;64590.91;5537831;28;20473;-62
2022/01/30 08:55:47;;;;;;;9.90;9.00;;;;;;;-144.53;100.00;64590.91;5537539;28;20360;-62
2022/01/30 08:58:29;;;;;;;9.27;8.47;;;;;;;-144.53;100.00;64590.91;5539583;28;20192;-62
2022/01/30 09:01:12;;;;;;;10.63;9.53;;;;;;;-144.53;100.00;64590.91;5543787;28;20177;-61
2022/01/30 09:03:52;;;;;;;10.27;9.30;;;;;;;-144.53;100.00;64590.91;5544626;28;20454;-65
2022/01/30 09:06:36;;;;;;;11.07;10.17;;;;;;;-144.53;100.00;64590.91;5537321;28;20660;-63
2022/01/30 09:09:17;;;;;;;9.60;8.80;;;;;;;-144.53;100.00;64590.91;5544623;28;20192;-60
2022/01/30 09:12:02;;;;;;;10.23;9.33;;;;;;;-144.53;100.00;64590.91;5545107;28;20422;-61
2022/01/30 09:14:43;;;;;;;10.60;8.90;;;;;;;-144.53;100.00;64590.91;5541287;28;20254;-61
2022/01/30 09:17:26;;;;;;;9.47;8.63;;;;;;;-144.53;100.00;64590.91;5534623;28;20458;-63
2022/01/30 09:20:07;;;;;;;10.57;9.60;;;;;;;-144.53;100.00;64590.91;5543864;28;20212;-63
2022/01/30 09:22:49;;;;;;;9.63;8.73;;;;;;;-144.53;100.00;64590.91;5559190;28;20506;-63
2022/01/30 09:25:29;;;;;;;10.33;9.53;;;;;;;-144.53;100.00;64590.91;5544592;28;20429;-61
2022/01/30 09:28:10;;;;;;;11.30;10.27;;;;;;;-144.53;100.00;64590.91;5551310;28;20470;-62
2022/01/30 09:30:51;;;;;;;10.73;9.83;;;;;;;-144.53;100.00;64590.91;5542989;28;20186;-61
2022/01/30 09:33:31;;;;;;;10.37;9.47;;;;;;;-144.53;100.00;64590.91;5544196;28;20206;-61
2022/01/30 09:36:13;;;;;;;12.10;11.00;;;;;;;-144.53;100.00;64590.91;5544772;28;20239;-63
2022/01/30 09:38:54;;;;;;;11.50;10.40;;;;;;;-144.53;100.00;64590.91;5538852;28;20181;-61
2022/01/30 09:41:37;;;;;;;9.90;9.00;;;;;;;-144.53;100.00;64590.91;5545935;28;20476;-62
2022/01/30 09:44:19;;;;;;;10.67;9.43;;;;;;;-144.53;100.00;64590.91;5542531;28;20483;-62
2022/01/30 09:47:00;;;;;;;10.77;9.67;;;;;;;-144.53;100.00;64590.91;5540845;28;20563;-63
2022/01/30 09:49:45;;;;;;;10.43;9.33;;;;;;;-144.53;100.00;64590.91;5542906;28;20441;-63
2022/01/30 09:52:26;;;;;;;11.23;10.13;;;;;;;-144.53;100.00;64590.91;5549330;28;20854;-64
2022/01/30 09:55:08;;;;;;;10.13;9.23;;;;;;;-144.53;100.00;64590.91;5559149;28;20538;-64
2022/01/30 09:57:49;;;;;;;10.17;9.20;;;;;;;-144.53;100.00;64590.91;5540111;28;20281;-62
2022/01/30 10:00:30;;;;;;;9.53;8.73;;;;;;;-144.53;100.00;64590.91;5543572;28;20772;-60
2022/01/30 10:03:10;;;;;;;10.43;9.53;;;;;;;-144.53;100.00;64590.91;5553858;28;20336;-63
2022/01/30 10:06:12;;;;;;;11.13;10.13;;;;;;;-144.53;100.00;64590.91;5544335;28;20217;-60
2022/01/30 10:08:56;;;;;;;9.93;9.03;;;;;;;-144.53;100.00;64590.91;5544272;28;20549;-65
2022/01/30 10:11:48;;;;;;;11.20;10.10;;;;;;;-144.53;100.00;64590.91;5543147;28;20415;-65
2022/01/30 10:14:30;;;;;;;11.03;9.93;;;;;;;-144.53;100.00;64590.91;5541111;28;20461;-63
2022/01/30 10:17:42;;;;;;;9.80;9.00;;;;;;;-144.53;100.00;64590.91;5540897;28;20431;-62
2022/01/30 10:20:25;;;;;;;11.10;10.07;;;;;;;-144.53;100.00;64590.91;5545160;28;20434;-62
2022/01/30 10:23:10;;;;;;;10.20;9.40;;;;;;;-144.53;100.00;64590.91;5544116;28;20426;-62
2022/01/30 10:25:53;;;;;;;10.23;9.40;;;;;;;-144.53;100.00;64590.91;5549161;28;20513;-62
2022/01/30 10:28:35;;;;;;;10.60;9.70;;;;;;;-144.53;100.00;64590.91;5578265;28;20493;-62
2022/01/30 10:31:16;;;;;;;10.77;9.90;;;;;;;-144.53;100.00;64590.91;5548986;28;20425;-61
2022/01/30 10:33:57;;;;;;;10.70;9.80;;;;;;;-144.53;100.00;64590.91;5544398;28;20453;-66
2022/01/30 10:36:42;;;;;;;10.27;9.47;;;;;;;-144.53;100.00;64590.91;5563446;28;21001;-61
2022/01/30 10:39:24;;;;;;;10.50;9.60;;;;;;;-144.53;100.00;64590.91;5565106;28;20509;-61
2022/01/30 10:42:05;;;;;;;10.17;9.33;;;;;;;-144.53;100.00;64590.91;5564278;28;20431;-62
2022/01/30 10:44:47;;;;;;;11.00;9.83;;;;;;;-144.53;100.00;64590.91;5547401;28;20465;-62
2022/01/30 10:47:30;;;;;;;11.20;10.30;;;;;;;-144.53;100.00;64590.91;5560818;28;20213;-62
2022/01/30 10:50:19;;;;;;;10.70;9.70;;;;;;;-144.53;100.00;64590.91;5564190;28;20425;-66
2022/01/30 10:53:03;;;;;;;11.10;10.10;;;;;;;-144.53;100.00;64590.91;5548857;28;20473;-60
2022/01/30 10:55:45;;;;;;;10.10;9.20;;;;;;;-144.53;100.00;64590.91;5547696;28;20960;-63
2022/01/30 10:58:26;;;;;;;10.67;9.70;;;;;;;-144.53;100.00;64590.91;5534856;28;20844;-61
2022/01/30 11:01:06;;;;;;;10.50;9.60;;;;;;;-144.53;100.00;64590.91;5548129;28;20526;-63
2022/01/30 11:03:51;;;;;;;9.83;9.00;;;;;;;-144.53;100.00;64590.91;5548477;28;20177;-60
2022/01/30 11:06:38;;;;;;;10.30;9.40;;;;;;;-144.53;100.00;64590.91;5538965;28;20180;-60
2022/01/30 11:09:31;;;;;;;10.60;9.60;;;;;;;-144.53;100.00;64590.91;5543510;28;20446;-61
2022/01/30 11:12:15;;;;;;;10.43;9.63;;;;;;;-144.53;100.00;64590.91;5548389;28;20415;-65
2022/01/30 11:15:14;;;;;;;10.70;9.90;;;;;;;-144.53;100.00;64590.91;5547744;28;20454;-61
2022/01/30 11:17:59;;;;;;;11.13;10.13;;;;;;;-144.53;100.00;64590.91;5558908;28;20955;-60
2022/01/30 11:20:41;;;;;;;9.83;9.13;;;;;;;-144.53;100.00;64590.91;5547544;28;20435;-61
2022/01/30 11:23:24;;;;;;;11.53;10.53;;;;;;;-144.53;100.00;64590.91;5562660;28;20418;-63
2022/01/30 11:26:05;;;;;;;9.73;8.93;;;;;;;-144.53;100.00;64590.91;5563335;28;20525;-62
2022/01/30 11:28:46;;;;;;;9.90;9.17;;;;;;;-144.53;100.00;64590.91;5543783;28;20423;-62
2022/01/30 11:31:27;;;;;;;10.60;9.70;;;;;;;-144.53;100.00;64590.91;5560683;28;20443;-61
2022/01/30 11:34:08;;;;;;;10.63;9.83;;;;;;;-144.53;100.00;64590.91;5548180;28;20328;-66
2022/01/30 11:36:49;;;;;;;9.67;8.83;;;;;;;-144.53;100.00;64590.91;5547135;28;20185;-63
2022/01/30 11:39:30;;;;;;;9.90;9.10;;;;;;;-144.53;100.00;64590.91;5547670;28;20418;-60
2022/01/30 11:42:12;;;;;;;10.90;10.00;;;;;;;-144.53;100.00;64590.91;5542182;28;20835;-64
2022/01/30 11:45:04;;;;;;;10.40;9.40;;;;;;;-144.53;100.00;64590.91;5547408;28;20415;-62
2022/01/30 11:47:46;;;;;;;10.23;9.33;;;;;;;-144.53;100.00;64590.91;5546239;28;20774;-60
2022/01/30 11:50:34;;;;;;;10.60;9.57;;;;;;;-144.53;100.00;64590.91;5546258;28;20849;-64
2022/01/30 11:53:28;;;;;;;10.73;9.80;;;;;;;-144.53;100.00;64590.91;5560657;28;20480;-62
2022/01/30 11:56:08;;;;;;;10.67;9.73;;;;;;;-144.53;100.00;64590.91;5547735;28;20430;-64
2022/01/30 11:58:56;;;;;;;10.43;9.53;;;;;;;-144.53;100.00;64590.91;5546673;28;20461;-65
2022/01/30 12:01:37;;;;;;;10.33;9.53;;;;;;;-144.53;100.00;64590.91;5546801;28;20190;-62
2022/01/30 12:04:18;;;;;;;11.10;10.10;;;;;;;-144.53;100.00;64590.91;5544461;28;20449;-62
2022/01/30 12:06:59;;;;;;;10.53;9.57;;;;;;;-144.53;100.00;64590.91;5549336;28;20216;-62
2022/01/30 12:09:40;;;;;;;10.77;9.87;;;;;;;-144.53;100.00;64590.91;5548209;28;20232;-62
2022/01/30 12:12:47;;;;;;;11.03;10.03;;;;;;;-144.53;100.00;64590.91;5542139;28;20427;-64
2022/01/30 12:15:44;;;;;;;14.00;12.80;;;;;;;-144.53;100.00;64590.91;5544374;28;20193;-60
2022/01/30 12:18:45;;;;;;;11.13;10.13;;;;;;;-144.53;100.00;64590.91;5554785;28;21017;-62
2022/01/30 12:21:27;;;;;;;10.33;9.43;;;;;;;-144.53;100.00;64590.91;5539099;28;20494;-64
2022/01/30 12:24:25;;;;;;;10.03;9.13;;;;;;;-144.53;100.00;64590.91;5535839;28;20427;-63
2022/01/30 12:27:06;;;;;;;10.60;9.60;;;;;;;-144.53;100.00;64590.91;5541093;28;20480;-65
2022/01/30 12:29:51;;;;;;;15.50;9.57;;;;;;;-144.53;100.00;64590.91;5555081;28;20414;-62
2022/01/30 12:32:32;;;;;;;10.60;9.60;;;;;;;-144.53;100.00;64590.91;5557167;28;20778;-61
2022/01/30 12:35:17;;;;;;;11.57;10.57;;;;;;;-144.53;100.00;64590.91;5536015;28;20457;-62
2022/01/30 12:37:58;;;;;;;9.83;9.03;;;;;;;-144.53;100.00;64590.91;5546078;28;20411;-62
2022/01/30 12:40:45;;;;;;;11.30;10.30;;;;;;;-144.53;100.00;64590.91;5544050;28;20429;-61
2022/01/30 12:43:31;;;;;;;10.90;10.00;;;;;;;-144.53;100.00;64590.91;5547340;28;20411;-64
2022/01/30 12:46:13;;;;;;;10.37;9.53;;;;;;;-144.53;100.00;64590.91;5546616;28;20464;-61
2022/01/30 12:49:04;;;;;;;10.83;9.93;;;;;;;-144.53;100.00;64590.91;5565884;28;20950;-61
2022/01/30 12:51:51;;;;;;;11.70;10.60;;;;;;;-144.53;100.00;64590.91;5549505;28;20962;-60
2022/01/30 12:54:40;;;;;;;10.67;9.67;;;;;;;-144.53;100.00;64590.91;5548589;28;20473;-61
2022/01/30 12:57:22;;;;;;;9.73;9.03;;;;;;;-144.53;100.00;64590.91;5542731;28;20906;-63
2022/01/30 13:00:07;;;;;;;10.07;9.17;;;;;;;-144.53;100.00;64590.91;5551318;28;20418;-60
2022/01/30 13:02:59;;;;;;;10.50;9.67;;;;;;;-144.53;100.00;64590.91;5551624;28;20430;-60
2022/01/30 13:05:43;;;;;;;10.70;9.90;;;;;;;-144.53;100.00;64590.91;5563396;28;20419;-60
2022/01/30 13:08:41;;;;;;;10.43;9.53;;;;;;;-144.53;100.00;64590.91;5545632;28;20430;-61
2022/01/30 13:11:24;;;;;;;10.53;9.73;;;;;;;-144.53;100.00;64590.91;5549022;28;20407;-60
2022/01/30 13:14:10;;;;;;;10.40;9.57;;;;;;;-144.53;100.00;64590.91;5544352;28;20455;-62
2022/01/30 13:16:51;;;;;;;10.50;9.60;;;;;;;-144.53;100.00;64590.91;5549461;28;20411;-60